Time;durP1;ratioP1;P1;durP2;ratioP2;P2;SDS_P1;SDS_P2;PMS_P1;PMS_P2;Temp;Humidity;BMP_temperature;BMP_pressure;BME280_temperature;BME280_humidity;BME280_pressure;Samples;Min_cycle;Max_cycle;Signal;HPM_P1;HPM_P2
2023/09/23 00:02:10;;;;;;;0.63;0.63;;;12.00;99.90;;;;;;5092497;28;21247;-73
2023/09/23 00:04:37;;;;;;;0.93;0.93;;;12.00;99.90;;;;;;5098393;28;20725;-72
2023/09/23 00:07:05;;;;;;;0.80;0.50;;;11.90;99.90;;;;;;5088726;27;21302;-72
2023/09/23 00:09:33;;;;;;;1.10;0.70;;;12.00;99.90;;;;;;5086467;28;20635;-72
2023/09/23 00:12:00;;;;;;;0.80;0.63;;;11.90;99.90;;;;;;5091772;27;20672;-72
2023/09/23 00:14:28;;;;;;;0.90;0.73;;;11.90;99.90;;;;;;5100943;27;20614;-72
2023/09/23 00:16:55;;;;;;;0.70;0.70;;;12.10;99.90;;;;;;5093866;27;20667;-73
2023/09/23 00:19:23;;;;;;;0.60;0.60;;;12.00;99.90;;;;;;5095594;27;20611;-72
2023/09/23 00:21:51;;;;;;;0.97;0.70;;;12.00;99.90;;;;;;5091399;27;20651;-72
2023/09/23 00:24:18;;;;;;;2.20;0.60;;;12.00;99.90;;;;;;5096859;27;20630;-72
2023/09/23 00:26:48;;;;;;;0.50;0.50;;;12.00;99.90;;;;;;5105752;27;20774;-72
2023/09/23 00:29:17;;;;;;;0.60;0.50;;;12.10;99.90;;;;;;5105033;27;20633;-72
2023/09/23 00:31:44;;;;;;;1.07;0.60;;;12.10;99.90;;;;;;5091958;27;20733;-72
2023/09/23 00:34:11;;;;;;;0.60;0.50;;;12.00;99.90;;;;;;5090321;27;20656;-73
2023/09/23 00:36:39;;;;;;;1.30;0.53;;;11.90;99.90;;;;;;5099414;27;20632;-72
2023/09/23 00:39:06;;;;;;;0.70;0.70;;;12.00;99.90;;;;;;5094540;27;21172;-72
2023/09/23 00:41:33;;;;;;;0.50;0.50;;;12.00;99.90;;;;;;5103675;27;21208;-72
2023/09/23 00:44:00;;;;;;;0.60;0.60;;;11.90;99.90;;;;;;5091284;27;20709;-72
2023/09/23 00:46:27;;;;;;;0.53;0.50;;;11.90;99.90;;;;;;5096951;27;20624;-73
2023/09/23 00:48:54;;;;;;;0.97;0.67;;;11.70;99.90;;;;;;5099650;27;20615;-72
2023/09/23 00:51:21;;;;;;;0.63;0.63;;;11.70;99.90;;;;;;5103854;27;20626;-72
2023/09/23 00:53:51;;;;;;;0.70;0.70;;;11.60;99.90;;;;;;5091296;27;21025;-72
2023/09/23 00:56:23;;;;;;;0.70;0.70;;;11.50;99.90;;;;;;5083090;27;20624;-76
2023/09/23 00:58:50;;;;;;;0.40;0.37;;;11.40;99.90;;;;;;5088135;27;20634;-72
2023/09/23 01:01:17;;;;;;;0.50;0.40;;;11.30;99.90;;;;;;5101119;27;20701;-72
2023/09/23 01:03:45;;;;;;;1.13;0.63;;;11.30;99.90;;;;;;5099131;27;20974;-72
2023/09/23 01:06:15;;;;;;;0.70;0.53;;;11.20;99.90;;;;;;5098082;27;20633;-72
2023/09/23 01:08:44;;;;;;;0.70;0.70;;;11.20;99.90;;;;;;5100334;27;20726;-72
2023/09/23 01:11:13;;;;;;;0.70;0.70;;;11.10;99.90;;;;;;5097151;27;20634;-72
2023/09/23 01:13:44;;;;;;;1.13;1.03;;;11.10;99.90;;;;;;5096237;27;21199;-72
2023/09/23 01:16:13;;;;;;;1.40;0.80;;;11.10;99.90;;;;;;5099013;27;20669;-72
2023/09/23 01:18:41;;;;;;;0.60;0.53;;;11.10;99.90;;;;;;5103476;27;20628;-71
2023/09/23 01:21:09;;;;;;;0.73;0.73;;;11.00;99.90;;;;;;5085661;27;20633;-72
2023/09/23 01:23:39;;;;;;;0.67;0.67;;;11.00;99.90;;;;;;5092842;27;20620;-71
2023/09/23 01:26:09;;;;;;;0.77;0.70;;;11.00;99.90;;;;;;5087375;28;20705;-72
2023/09/23 01:28:37;;;;;;;0.50;0.50;;;10.90;99.90;;;;;;5096234;27;20619;-72
2023/09/23 01:31:06;;;;;;;1.27;0.97;;;10.90;99.90;;;;;;5099492;27;20639;-72
2023/09/23 01:33:34;;;;;;;0.50;0.30;;;10.80;99.90;;;;;;5097732;27;21854;-72
2023/09/23 01:36:03;;;;;;;0.40;0.30;;;10.70;99.90;;;;;;5098007;27;21285;-72
2023/09/23 01:38:31;;;;;;;0.80;0.70;;;10.60;99.90;;;;;;5100271;27;21013;-72
2023/09/23 01:41:03;;;;;;;1.17;0.80;;;10.60;99.90;;;;;;5099375;27;20623;-72
2023/09/23 01:43:32;;;;;;;0.80;0.67;;;10.50;99.90;;;;;;5104016;27;20714;-72
2023/09/23 01:46:03;;;;;;;1.63;0.50;;;10.50;99.90;;;;;;5099238;27;20628;-71
2023/09/23 01:48:32;;;;;;;0.70;0.70;;;10.60;99.90;;;;;;5092984;27;20705;-72
2023/09/23 01:50:59;;;;;;;0.60;0.40;;;10.50;99.90;;;;;;5098598;27;20623;-71
2023/09/23 01:53:26;;;;;;;0.80;0.67;;;10.40;99.90;;;;;;5097384;27;20616;-72
2023/09/23 01:55:53;;;;;;;0.30;0.30;;;10.30;99.90;;;;;;5096378;27;20631;-72
2023/09/23 01:58:22;;;;;;;0.40;0.40;;;10.40;99.90;;;;;;5095069;27;20624;-71
2023/09/23 02:00:50;;;;;;;0.80;0.60;;;10.30;99.90;;;;;;5085398;28;20617;-72
2023/09/23 02:03:17;;;;;;;0.57;0.50;;;10.30;99.90;;;;;;5096872;27;20655;-72
2023/09/23 02:05:44;;;;;;;0.43;0.37;;;10.30;99.90;;;;;;5097801;27;20624;-72
2023/09/23 02:08:11;;;;;;;1.17;1.00;;;10.20;99.90;;;;;;5103859;27;20723;-72
2023/09/23 02:10:38;;;;;;;0.70;0.60;;;10.20;99.90;;;;;;5085769;27;20972;-72
2023/09/23 02:13:05;;;;;;;0.70;0.57;;;10.20;99.90;;;;;;5088899;27;20670;-72
2023/09/23 02:15:34;;;;;;;1.27;0.60;;;10.20;99.90;;;;;;5085446;28;21896;-72
2023/09/23 02:18:04;;;;;;;0.40;0.40;;;10.30;99.90;;;;;;5093055;27;20739;-72
2023/09/23 02:20:32;;;;;;;0.60;0.60;;;10.40;99.90;;;;;;5094809;27;20710;-72
2023/09/23 02:23:00;;;;;;;0.53;0.53;;;10.40;99.90;;;;;;5104174;27;20644;-72
2023/09/23 02:25:28;;;;;;;0.77;0.60;;;10.40;99.90;;;;;;5096835;27;21205;-73
2023/09/23 02:27:56;;;;;;;0.50;0.50;;;10.30;99.90;;;;;;5098478;27;20632;-72
2023/09/23 02:30:24;;;;;;;0.80;0.70;;;10.30;99.90;;;;;;5096842;27;20643;-72
2023/09/23 02:32:53;;;;;;;0.40;0.40;;;10.10;99.90;;;;;;5102082;27;20603;-72
2023/09/23 02:35:21;;;;;;;0.47;0.47;;;10.00;99.90;;;;;;5081701;27;20678;-72
2023/09/23 02:37:49;;;;;;;1.00;0.60;;;10.10;99.90;;;;;;5094242;27;21026;-72
2023/09/23 02:40:17;;;;;;;1.20;0.73;;;10.10;99.90;;;;;;5098274;27;20632;-72
2023/09/23 02:42:47;;;;;;;0.90;0.90;;;10.20;99.90;;;;;;5096356;27;20658;-71
2023/09/23 02:45:17;;;;;;;0.60;0.53;;;10.20;99.90;;;;;;5105313;27;20612;-72
2023/09/23 02:47:46;;;;;;;0.83;0.80;;;10.20;99.90;;;;;;5093379;27;20616;-72
2023/09/23 02:50:17;;;;;;;0.53;0.53;;;10.10;99.90;;;;;;5097592;27;20634;-72
2023/09/23 02:52:48;;;;;;;0.93;0.93;;;10.10;99.90;;;;;;5101057;27;20625;-72
2023/09/23 02:55:16;;;;;;;1.10;1.00;;;10.10;99.90;;;;;;5092573;28;20927;-72
2023/09/23 02:57:45;;;;;;;0.60;0.60;;;10.00;99.90;;;;;;5102312;28;20956;-72
2023/09/23 03:00:19;;;;;;;1.00;0.60;;;9.80;99.90;;;;;;5083227;28;22097;-72
2023/09/23 03:02:52;;;;;;;1.37;0.47;;;9.80;99.90;;;;;;5078016;28;20723;-72
2023/09/23 03:05:25;;;;;;;0.90;0.77;;;9.90;99.90;;;;;;5092733;28;21010;-72
2023/09/23 03:07:52;;;;;;;1.10;0.93;;;9.90;99.90;;;;;;5102928;28;20620;-72
2023/09/23 03:10:29;;;;;;;0.40;0.30;;;9.80;99.90;;;;;;5103710;28;20732;-72
2023/09/23 03:13:02;;;;;;;0.70;0.60;;;9.70;99.90;;;;;;5100151;28;20612;-72
2023/09/23 03:15:34;;;;;;;0.90;0.90;;;9.70;99.90;;;;;;5091281;28;21216;-73
2023/09/23 03:18:00;;;;;;;0.60;0.60;;;9.60;99.90;;;;;;5091525;28;20612;-72
2023/09/23 03:20:30;;;;;;;0.80;0.80;;;9.70;99.90;;;;;;5099111;28;20748;-73
2023/09/23 03:22:57;;;;;;;0.50;0.50;;;9.80;99.90;;;;;;5103815;28;20723;-71
2023/09/23 03:25:23;;;;;;;1.00;1.00;;;9.90;99.90;;;;;;5092151;28;20623;-71
2023/09/23 03:27:52;;;;;;;0.80;0.80;;;9.90;99.90;;;;;;5096821;28;20677;-71
2023/09/23 03:30:19;;;;;;;1.60;0.50;;;10.00;99.90;;;;;;5094517;28;21217;-72
2023/09/23 03:32:46;;;;;;;1.03;0.90;;;10.00;99.90;;;;;;5097806;28;20719;-72
2023/09/23 03:35:17;;;;;;;1.87;0.60;;;9.90;99.90;;;;;;5099574;28;20630;-72
2023/09/23 03:37:49;;;;;;;0.80;0.80;;;10.00;99.90;;;;;;5102825;27;20715;-72
2023/09/23 03:40:20;;;;;;;0.50;0.50;;;10.00;99.90;;;;;;5082741;28;20638;-72
2023/09/23 03:42:48;;;;;;;0.90;0.73;;;10.10;99.90;;;;;;5092259;27;20670;-72
2023/09/23 03:45:18;;;;;;;1.10;0.90;;;10.20;99.90;;;;;;5096540;27;20635;-72
2023/09/23 03:47:46;;;;;;;0.70;0.60;;;10.20;99.90;;;;;;5098200;27;20713;-72
2023/09/23 03:50:13;;;;;;;0.60;0.60;;;10.20;99.90;;;;;;5106679;27;20971;-72
2023/09/23 03:52:40;;;;;;;1.80;0.70;;;10.30;99.90;;;;;;5099640;27;20640;-72
2023/09/23 03:55:11;;;;;;;1.30;1.10;;;10.30;99.90;;;;;;5102262;27;21426;-72
2023/09/23 03:57:38;;;;;;;1.10;1.00;;;10.30;99.90;;;;;;5103194;27;21207;-72
2023/09/23 04:00:12;;;;;;;0.73;0.73;;;10.30;99.90;;;;;;5107418;27;21180;-72
2023/09/23 04:02:39;;;;;;;0.83;0.83;;;10.10;99.90;;;;;;5082153;27;20802;-72
2023/09/23 04:05:06;;;;;;;1.03;0.93;;;10.10;99.90;;;;;;5097502;27;20619;-72
2023/09/23 04:07:33;;;;;;;0.77;0.77;;;10.10;99.90;;;;;;5100077;27;21079;-72
2023/09/23 04:10:00;;;;;;;0.60;0.60;;;10.10;99.90;;;;;;5095920;27;20663;-72
2023/09/23 04:12:28;;;;;;;0.50;0.50;;;10.20;99.90;;;;;;5093459;27;20636;-72
2023/09/23 04:14:54;;;;;;;0.60;0.60;;;10.20;99.90;;;;;;5104391;27;21175;-72
2023/09/23 04:17:24;;;;;;;0.53;0.50;;;10.20;99.90;;;;;;5083864;28;20981;-72
2023/09/23 04:19:50;;;;;;;0.80;0.80;;;10.30;99.90;;;;;;5098348;27;20729;-71
2023/09/23 04:22:18;;;;;;;1.83;0.93;;;10.20;99.90;;;;;;5105624;27;20648;-72
2023/09/23 04:24:44;;;;;;;0.50;0.47;;;10.30;99.90;;;;;;5099035;27;21235;-72
2023/09/23 04:27:11;;;;;;;1.13;0.60;;;10.30;99.90;;;;;;5100352;27;20983;-72
2023/09/23 04:29:40;;;;;;;0.87;0.80;;;10.30;99.90;;;;;;5085423;27;21202;-72
2023/09/23 04:32:07;;;;;;;0.60;0.60;;;10.30;99.90;;;;;;5096459;27;20630;-72
2023/09/23 04:34:35;;;;;;;1.27;0.90;;;10.30;99.90;;;;;;5104928;27;20627;-72
2023/09/23 04:37:04;;;;;;;0.90;0.73;;;10.40;99.90;;;;;;5105719;27;20643;-72
2023/09/23 04:39:31;;;;;;;0.50;0.40;;;10.30;99.90;;;;;;5107408;27;20637;-72
2023/09/23 04:41:58;;;;;;;0.97;0.60;;;10.30;99.90;;;;;;5083095;28;20616;-72
2023/09/23 04:44:25;;;;;;;0.70;0.70;;;10.30;99.90;;;;;;5102896;27;20667;-72
2023/09/23 04:46:53;;;;;;;1.00;0.40;;;10.30;99.90;;;;;;5100062;27;20616;-72
2023/09/23 04:49:21;;;;;;;0.97;0.90;;;10.40;99.90;;;;;;5104260;27;20632;-72
2023/09/23 04:51:48;;;;;;;0.77;0.60;;;10.40;99.90;;;;;;5083201;27;20654;-72
2023/09/23 04:54:14;;;;;;;1.53;0.90;;;10.30;99.90;;;;;;5097780;27;21139;-72
2023/09/23 04:56:42;;;;;;;0.90;0.80;;;10.20;99.90;;;;;;5099085;27;20625;-72
2023/09/23 04:59:09;;;;;;;0.73;0.73;;;10.20;99.90;;;;;;5096981;27;20661;-72
2023/09/23 05:01:35;;;;;;;1.03;0.80;;;10.10;99.90;;;;;;5103298;27;20634;-72
2023/09/23 05:04:08;;;;;;;0.80;0.70;;;10.10;99.90;;;;;;5082367;28;20662;-72
2023/09/23 05:06:36;;;;;;;0.80;0.80;;;10.00;99.90;;;;;;5099038;27;21250;-71
2023/09/23 05:09:03;;;;;;;0.87;0.50;;;10.00;99.90;;;;;;5100243;27;21174;-72
2023/09/23 05:11:30;;;;;;;1.43;1.00;;;10.00;99.90;;;;;;5096606;27;20644;-72
2023/09/23 05:13:57;;;;;;;2.60;0.80;;;9.90;99.90;;;;;;5100227;27;21089;-72
2023/09/23 05:16:24;;;;;;;1.63;1.10;;;9.90;99.90;;;;;;5089498;27;20639;-72
2023/09/23 05:18:50;;;;;;;2.23;1.17;;;9.90;99.90;;;;;;5092298;27;20973;-72
2023/09/23 05:21:19;;;;;;;0.90;0.73;;;9.90;99.90;;;;;;5093280;27;21195;-72
2023/09/23 05:23:48;;;;;;;3.60;1.43;;;9.70;99.90;;;;;;5090199;27;20659;-73
2023/09/23 05:26:16;;;;;;;2.10;1.13;;;9.70;99.90;;;;;;5101163;27;20961;-72
2023/09/23 05:28:43;;;;;;;0.70;0.70;;;9.70;99.90;;;;;;5079898;28;20631;-72
2023/09/23 05:31:14;;;;;;;0.90;0.77;;;9.80;99.90;;;;;;5089820;27;20627;-72
2023/09/23 05:33:43;;;;;;;1.23;0.80;;;9.90;99.90;;;;;;5099741;27;21267;-72
2023/09/23 05:36:11;;;;;;;1.87;1.63;;;9.90;99.90;;;;;;5101006;27;21219;-71
2023/09/23 05:38:39;;;;;;;1.30;1.20;;;9.90;99.90;;;;;;5102850;27;20627;-71
2023/09/23 05:41:06;;;;;;;1.60;1.40;;;10.00;99.90;;;;;;5085959;27;20735;-71
2023/09/23 05:43:33;;;;;;;1.10;1.00;;;10.10;99.90;;;;;;5083042;27;20660;-70
2023/09/23 05:46:05;;;;;;;1.23;1.00;;;10.20;99.90;;;;;;5085693;27;20727;-70
2023/09/23 05:48:32;;;;;;;1.00;0.90;;;10.30;99.90;;;;;;5099050;27;20654;-70
2023/09/23 05:51:04;;;;;;;1.13;1.10;;;10.30;99.90;;;;;;5104378;27;20749;-68
2023/09/23 05:53:32;;;;;;;0.87;0.87;;;10.30;99.90;;;;;;5087126;27;20624;-70
2023/09/23 05:56:00;;;;;;;1.30;1.10;;;10.30;99.90;;;;;;5091897;27;20734;-71
2023/09/23 05:58:27;;;;;;;6.03;1.23;;;10.30;99.90;;;;;;5098995;27;20620;-70
2023/09/23 06:00:54;;;;;;;0.70;0.70;;;10.40;99.90;;;;;;5102285;27;20620;-68
2023/09/23 06:03:21;;;;;;;2.20;2.00;;;10.30;99.90;;;;;;5099617;27;21235;-69
2023/09/23 06:05:47;;;;;;;0.70;0.63;;;10.40;99.90;;;;;;5100395;27;21188;-70
2023/09/23 06:08:14;;;;;;;0.70;0.70;;;10.50;99.90;;;;;;5096765;27;20742;-70
2023/09/23 06:10:41;;;;;;;0.83;0.83;;;10.40;99.90;;;;;;5096568;27;20668;-70
2023/09/23 06:13:10;;;;;;;0.77;0.77;;;10.40;99.90;;;;;;5098721;27;20992;-70
2023/09/23 06:15:36;;;;;;;0.50;0.50;;;10.50;99.90;;;;;;5097550;27;20627;-70
2023/09/23 06:18:03;;;;;;;1.17;0.93;;;10.50;99.90;;;;;;5074685;28;20664;-70
2023/09/23 06:20:30;;;;;;;1.40;1.30;;;10.60;99.90;;;;;;5090126;27;20634;-70
2023/09/23 06:22:57;;;;;;;1.10;0.90;;;10.60;99.90;;;;;;5085511;27;20660;-72
2023/09/23 06:25:24;;;;;;;1.33;0.40;;;10.70;99.90;;;;;;5100280;27;20626;-72
2023/09/23 06:27:50;;;;;;;1.10;1.00;;;10.70;99.90;;;;;;5101547;27;20620;-73
2023/09/23 06:30:19;;;;;;;1.20;1.10;;;10.80;99.90;;;;;;5079937;27;20707;-77
2023/09/23 06:32:47;;;;;;;1.10;0.77;;;10.80;99.90;;;;;;5084197;27;20998;-74
2023/09/23 06:35:14;;;;;;;0.47;0.47;;;10.80;99.90;;;;;;5096049;27;20628;-74
2023/09/23 06:37:41;;;;;;;1.03;0.90;;;10.90;99.90;;;;;;5098208;27;22424;-73
2023/09/23 06:40:08;;;;;;;0.77;0.63;;;11.00;99.90;;;;;;5101993;27;20666;-74
2023/09/23 06:42:35;;;;;;;1.27;1.17;;;10.90;99.90;;;;;;5079850;28;20981;-73
2023/09/23 06:45:06;;;;;;;0.50;0.50;;;11.00;99.90;;;;;;5090122;27;20663;-73
2023/09/23 06:47:34;;;;;;;0.83;0.77;;;11.10;99.90;;;;;;5094495;27;20630;-75
2023/09/23 06:50:00;;;;;;;1.07;0.70;;;11.20;99.90;;;;;;5098383;27;21006;-73
2023/09/23 06:52:27;;;;;;;0.80;0.53;;;11.30;99.90;;;;;;5098013;27;21010;-72
2023/09/23 06:54:54;;;;;;;0.70;0.70;;;11.40;99.90;;;;;;5085535;28;21061;-73
2023/09/23 06:57:21;;;;;;;0.63;0.63;;;11.50;99.90;;;;;;5090239;28;20648;-72
2023/09/23 06:59:49;;;;;;;0.70;0.70;;;11.50;99.90;;;;;;5093984;28;20624;-72
2023/09/23 07:02:16;;;;;;;1.23;0.87;;;11.60;99.90;;;;;;5090397;28;20718;-71
2023/09/23 07:04:44;;;;;;;0.63;0.60;;;11.70;99.90;;;;;;5096321;28;20653;-70
2023/09/23 07:07:11;;;;;;;0.87;0.87;;;11.70;99.90;;;;;;5100968;28;20626;-71
2023/09/23 07:09:38;;;;;;;1.00;0.63;;;11.80;99.90;;;;;;5096567;28;20630;-71
2023/09/23 07:12:06;;;;;;;0.73;0.73;;;11.80;99.90;;;;;;5098630;28;20687;-71
2023/09/23 07:14:33;;;;;;;1.07;1.00;;;11.90;99.90;;;;;;5090770;28;20624;-71
2023/09/23 07:17:03;;;;;;;0.80;0.80;;;12.10;99.90;;;;;;5102917;27;21238;-71
2023/09/23 07:19:29;;;;;;;1.13;0.70;;;12.40;99.90;;;;;;5084860;27;20700;-71
2023/09/23 07:21:58;;;;;;;0.60;0.60;;;12.40;99.90;;;;;;5098842;27;20725;-71
2023/09/23 07:24:26;;;;;;;0.80;0.80;;;12.20;99.90;;;;;;5092054;27;20648;-70
2023/09/23 07:26:54;;;;;;;0.57;0.57;;;12.40;99.90;;;;;;5106510;27;20968;-70
2023/09/23 07:29:21;;;;;;;0.80;0.80;;;12.50;99.90;;;;;;5105912;27;20639;-71
2023/09/23 07:31:48;;;;;;;1.17;1.07;;;12.60;99.90;;;;;;5092058;27;20621;-70
2023/09/23 07:34:15;;;;;;;1.90;1.10;;;12.60;99.90;;;;;;5092579;27;20695;-70
2023/09/23 07:36:43;;;;;;;0.60;0.60;;;12.50;99.90;;;;;;5102579;27;20628;-71
2023/09/23 07:39:11;;;;;;;0.73;0.70;;;12.60;99.90;;;;;;5102384;27;20626;-70
2023/09/23 07:41:38;;;;;;;0.80;0.80;;;12.70;99.90;;;;;;5100555;27;20638;-70
2023/09/23 07:44:05;;;;;;;0.70;0.70;;;12.70;99.90;;;;;;5087564;27;20656;-71
2023/09/23 07:46:32;;;;;;;0.90;0.50;;;12.90;99.90;;;;;;5095358;27;20638;-71
2023/09/23 07:48:59;;;;;;;0.50;0.50;;;13.00;99.90;;;;;;5102423;27;20667;-71
2023/09/23 07:51:25;;;;;;;0.53;0.53;;;13.40;99.90;;;;;;5099996;27;20784;-70
2023/09/23 07:53:52;;;;;;;0.80;0.77;;;13.40;99.90;;;;;;5104836;27;21158;-71
2023/09/23 07:56:21;;;;;;;1.00;0.67;;;13.60;99.90;;;;;;5084078;27;20998;-71
2023/09/23 07:58:47;;;;;;;0.77;0.70;;;13.70;99.90;;;;;;5097158;27;20634;-71
2023/09/23 08:01:14;;;;;;;0.83;0.73;;;13.80;99.90;;;;;;5101199;27;20725;-71
2023/09/23 08:03:41;;;;;;;1.10;1.00;;;13.80;99.90;;;;;;5099708;27;20659;-71
2023/09/23 08:06:08;;;;;;;1.33;0.50;;;13.80;99.90;;;;;;5105885;27;20620;-70
2023/09/23 08:08:34;;;;;;;4.63;0.80;;;13.70;99.90;;;;;;5095177;27;20625;-71
2023/09/23 08:11:01;;;;;;;0.60;0.60;;;13.80;99.90;;;;;;5094194;27;20630;-71
2023/09/23 08:13:30;;;;;;;0.80;0.80;;;13.60;99.90;;;;;;5090126;27;20723;-70
2023/09/23 08:15:58;;;;;;;1.30;0.67;;;13.50;99.90;;;;;;5091732;27;20626;-71
2023/09/23 08:18:25;;;;;;;1.23;0.80;;;13.50;99.90;;;;;;5103129;27;20627;-71
2023/09/23 08:20:57;;;;;;;0.43;0.43;;;13.60;99.90;;;;;;5089744;27;21269;-71
2023/09/23 08:23:24;;;;;;;0.40;0.40;;;13.60;99.90;;;;;;5093770;27;21020;-71
2023/09/23 08:25:50;;;;;;;0.60;0.60;;;13.70;99.70;;;;;;5100107;27;21190;-71
2023/09/23 08:28:18;;;;;;;0.73;0.73;;;13.70;99.90;;;;;;5093910;27;20730;-71
2023/09/23 08:30:47;;;;;;;0.60;0.57;;;13.80;99.90;;;;;;5104471;27;20637;-71
2023/09/23 08:33:14;;;;;;;1.33;0.60;;;14.00;99.90;;;;;;5085271;27;20649;-71
2023/09/23 08:35:42;;;;;;;0.87;0.60;;;14.20;99.90;;;;;;5095745;27;20730;-70
2023/09/23 08:38:09;;;;;;;0.73;0.50;;;14.30;98.40;;;;;;5100440;27;20631;-71
2023/09/23 08:40:39;;;;;;;0.50;0.40;;;14.40;98.60;;;;;;5100770;27;21056;-70
2023/09/23 08:43:06;;;;;;;0.70;0.70;;;14.50;99.00;;;;;;5092581;27;21084;-71
2023/09/23 08:45:38;;;;;;;0.67;0.67;;;14.60;98.80;;;;;;5090812;27;20668;-71
2023/09/23 08:48:07;;;;;;;0.60;0.60;;;14.50;98.70;;;;;;5089468;27;21072;-71
2023/09/23 08:50:35;;;;;;;1.33;1.23;;;14.60;98.50;;;;;;5100252;27;20727;-70
2023/09/23 08:53:06;;;;;;;1.23;0.70;;;14.80;98.80;;;;;;5099645;27;20627;-70
2023/09/23 08:55:34;;;;;;;1.43;0.50;;;14.90;97.40;;;;;;5098716;27;20722;-71
2023/09/23 08:58:03;;;;;;;1.20;1.10;;;15.00;97.50;;;;;;5108626;27;20623;-71
2023/09/23 09:00:30;;;;;;;4.10;1.57;;;15.00;97.50;;;;;;5089304;28;20625;-71
2023/09/23 09:02:57;;;;;;;0.83;0.80;;;14.90;97.10;;;;;;5095219;27;20627;-71
2023/09/23 09:05:25;;;;;;;1.23;0.80;;;14.80;97.50;;;;;;5096419;27;20655;-70
2023/09/23 09:07:53;;;;;;;0.80;0.60;;;14.90;97.00;;;;;;5099612;27;20619;-71
2023/09/23 09:10:20;;;;;;;0.70;0.70;;;15.00;96.30;;;;;;5083211;27;20687;-71
2023/09/23 09:12:48;;;;;;;0.83;0.80;;;15.00;96.80;;;;;;5093859;27;20861;-71
2023/09/23 09:15:18;;;;;;;0.80;0.80;;;15.10;96.40;;;;;;5089675;27;20624;-72
2023/09/23 09:17:45;;;;;;;0.77;0.70;;;15.10;96.50;;;;;;5090144;28;20622;-71
2023/09/23 09:20:13;;;;;;;0.70;0.70;;;15.30;96.50;;;;;;5100047;27;20623;-72
2023/09/23 09:22:44;;;;;;;1.37;0.70;;;15.40;96.20;;;;;;5091058;27;20654;-71
2023/09/23 09:25:12;;;;;;;0.40;0.40;;;15.30;95.80;;;;;;5089406;27;20661;-70
2023/09/23 09:27:39;;;;;;;1.07;0.93;;;15.50;95.50;;;;;;5099515;27;20631;-71
2023/09/23 09:30:11;;;;;;;1.03;0.80;;;15.40;96.30;;;;;;5092689;27;20622;-71
2023/09/23 09:32:41;;;;;;;1.73;1.40;;;15.50;96.40;;;;;;5102792;27;21817;-71
2023/09/23 09:35:12;;;;;;;0.80;0.60;;;15.60;95.50;;;;;;5085049;27;20641;-71
2023/09/23 09:37:44;;;;;;;0.50;0.50;;;15.60;94.80;;;;;;5094806;27;21232;-71
2023/09/23 09:40:15;;;;;;;1.00;0.90;;;15.70;94.30;;;;;;5098305;27;20615;-71
2023/09/23 09:42:51;;;;;;;3.00;0.70;;;15.60;93.30;;;;;;5098114;27;20622;-71
2023/09/23 09:45:19;;;;;;;0.87;0.50;;;15.50;94.30;;;;;;5104611;27;20659;-71
2023/09/23 09:47:48;;;;;;;1.37;0.50;;;15.60;93.90;;;;;;5080736;28;20714;-71
2023/09/23 09:50:15;;;;;;;1.10;0.77;;;15.60;92.70;;;;;;5096885;27;21312;-71
2023/09/23 09:52:45;;;;;;;4.00;0.70;;;15.70;93.30;;;;;;5099737;27;20614;-71
2023/09/23 09:55:18;;;;;;;0.40;0.40;;;15.90;92.80;;;;;;5091086;27;20732;-71
2023/09/23 09:57:47;;;;;;;0.80;0.70;;;16.00;92.40;;;;;;5091680;27;20616;-71
2023/09/23 10:00:27;;;;;;;0.80;0.63;;;16.20;93.00;;;;;;5089276;27;20621;-72
2023/09/23 10:02:59;;;;;;;0.60;0.53;;;16.10;92.00;;;;;;5087425;27;20633;-71
2023/09/23 10:05:33;;;;;;;0.60;0.60;;;16.10;90.90;;;;;;5097055;27;20651;-71
2023/09/23 10:08:12;;;;;;;0.50;0.50;;;16.20;92.20;;;;;;5094047;27;20753;-71
2023/09/23 10:10:46;;;;;;;2.10;0.90;;;16.20;92.50;;;;;;5099875;27;21055;-71
2023/09/23 10:13:15;;;;;;;0.70;0.57;;;16.30;91.80;;;;;;5082651;28;20722;-71
2023/09/23 10:15:42;;;;;;;0.50;0.50;;;16.50;90.50;;;;;;5090710;27;20627;-71
2023/09/23 10:18:13;;;;;;;0.53;0.53;;;16.50;91.20;;;;;;5099062;27;20624;-71
2023/09/23 10:20:48;;;;;;;1.83;0.83;;;16.50;90.60;;;;;;5102915;27;20906;-71
2023/09/23 10:23:19;;;;;;;0.93;0.60;;;16.40;92.00;;;;;;5104002;27;21077;-71
2023/09/23 10:25:48;;;;;;;0.70;0.67;;;16.60;91.30;;;;;;5101363;27;20682;-71
2023/09/23 10:28:22;;;;;;;0.70;0.60;;;16.90;90.60;;;;;;5090792;27;20628;-71
2023/09/23 10:31:04;;;;;;;0.40;0.40;;;17.00;90.00;;;;;;5101431;27;20638;-71
2023/09/23 10:33:53;;;;;;;0.57;0.57;;;16.60;86.80;;;;;;5102473;27;21183;-72
2023/09/23 10:36:21;;;;;;;1.50;0.90;;;16.40;87.70;;;;;;5090787;27;20644;-71
2023/09/23 10:38:49;;;;;;;2.37;0.60;;;16.30;86.80;;;;;;5091556;27;21413;-71
2023/09/23 10:41:17;;;;;;;1.03;0.50;;;16.30;88.00;;;;;;5095355;27;20702;-69
2023/09/23 10:43:43;;;;;;;0.80;0.60;;;16.20;90.10;;;;;;5093169;27;20633;-71
2023/09/23 10:46:10;;;;;;;0.70;0.70;;;16.20;88.70;;;;;;5096305;27;21296;-73
2023/09/23 10:48:37;;;;;;;0.80;0.70;;;16.30;89.30;;;;;;5089628;27;20626;-73
2023/09/23 10:51:05;;;;;;;2.20;1.10;;;16.40;87.50;;;;;;5088018;28;20618;-73
2023/09/23 10:53:32;;;;;;;0.63;0.60;;;16.80;88.40;;;;;;5098929;27;20635;-73
2023/09/23 10:56:01;;;;;;;0.83;0.60;;;16.90;89.30;;;;;;5093169;28;21750;-72
2023/09/23 10:58:29;;;;;;;0.67;0.67;;;16.90;85.00;;;;;;5089300;28;20646;-74
2023/09/23 11:00:57;;;;;;;0.80;0.70;;;17.10;87.50;;;;;;5092801;28;22357;-72
2023/09/23 11:03:23;;;;;;;0.70;0.50;;;17.10;87.20;;;;;;5094205;28;21165;-73
2023/09/23 11:05:51;;;;;;;0.77;0.77;;;17.10;87.10;;;;;;5084565;28;20651;-71
2023/09/23 11:08:19;;;;;;;0.90;0.90;;;17.30;89.70;;;;;;5088751;28;20628;-71
2023/09/23 11:10:47;;;;;;;0.70;0.60;;;17.40;87.10;;;;;;5093245;28;20651;-72
2023/09/23 11:13:16;;;;;;;0.50;0.50;;;17.60;86.60;;;;;;5104484;28;20742;-74
2023/09/23 11:15:45;;;;;;;1.70;0.87;;;17.70;87.40;;;;;;5078419;28;20938;-73
2023/09/23 11:18:13;;;;;;;0.70;0.70;;;17.50;86.70;;;;;;5083432;28;20651;-72
2023/09/23 11:20:42;;;;;;;1.80;1.30;;;17.10;87.30;;;;;;5101095;28;20621;-73
2023/09/23 11:23:10;;;;;;;0.67;0.60;;;17.20;87.30;;;;;;5101698;28;20633;-73
2023/09/23 11:25:38;;;;;;;3.70;0.87;;;17.30;85.90;;;;;;5088506;28;20649;-73
2023/09/23 11:28:05;;;;;;;1.30;0.53;;;17.50;85.10;;;;;;5090549;28;20750;-73
2023/09/23 11:30:33;;;;;;;1.77;1.23;;;17.60;86.30;;;;;;5092474;28;20623;-70
2023/09/23 11:33:00;;;;;;;1.10;0.70;;;17.70;87.70;;;;;;5095419;28;20624;-76
2023/09/23 11:35:27;;;;;;;0.83;0.60;;;17.60;84.30;;;;;;5098170;28;20725;-76
2023/09/23 11:37:55;;;;;;;1.73;0.77;;;17.60;84.20;;;;;;5083968;28;20632;-72
2023/09/23 11:40:23;;;;;;;1.37;1.27;;;17.60;83.10;;;;;;5091646;28;20623;-73
2023/09/23 11:42:51;;;;;;;3.30;1.37;;;17.40;81.60;;;;;;5089792;28;20619;-70
2023/09/23 11:45:20;;;;;;;0.63;0.60;;;17.80;83.10;;;;;;5095562;28;20656;-70
2023/09/23 11:47:48;;;;;;;0.60;0.60;;;18.20;82.00;;;;;;5098258;28;21711;-74
2023/09/23 11:50:16;;;;;;;1.10;0.90;;;17.90;79.60;;;;;;5090684;28;20631;-72
2023/09/23 11:52:43;;;;;;;0.90;0.90;;;17.90;84.70;;;;;;5088226;28;21334;-72
2023/09/23 11:55:12;;;;;;;0.70;0.70;;;18.20;85.50;;;;;;5098719;28;20641;-71
2023/09/23 11:57:39;;;;;;;2.23;1.30;;;18.00;85.40;;;;;;5093186;28;20628;-71
2023/09/23 12:00:09;;;;;;;1.10;0.90;;;17.60;85.80;;;;;;5097267;28;20624;-70
2023/09/23 12:02:37;;;;;;;0.57;0.57;;;17.70;88.10;;;;;;5089331;28;21289;-72
2023/09/23 12:05:07;;;;;;;0.80;0.60;;;17.90;86.70;;;;;;5089883;27;20690;-72
2023/09/23 12:07:34;;;;;;;0.97;0.73;;;18.10;86.70;;;;;;5100391;27;20630;-72
2023/09/23 12:10:01;;;;;;;1.70;0.97;;;17.90;83.60;;;;;;5099676;27;20626;-72
2023/09/23 12:12:28;;;;;;;0.90;0.80;;;17.50;85.30;;;;;;5105335;27;20639;-74
2023/09/23 12:14:54;;;;;;;0.60;0.57;;;17.50;86.60;;;;;;5098789;27;21228;-73
2023/09/23 12:17:21;;;;;;;1.10;0.80;;;17.60;84.80;;;;;;5082972;27;20630;-73
2023/09/23 12:19:48;;;;;;;0.87;0.80;;;17.90;84.90;;;;;;5100277;27;20641;-73
2023/09/23 12:22:16;;;;;;;2.10;0.87;;;17.90;82.80;;;;;;5100667;27;21178;-72
2023/09/23 12:24:44;;;;;;;1.40;0.93;;;18.00;87.00;;;;;;5104190;27;20982;-72
2023/09/23 12:27:11;;;;;;;2.13;0.77;;;18.00;84.10;;;;;;5097113;27;20646;-71
2023/09/23 12:29:38;;;;;;;1.07;0.63;;;18.10;84.60;;;;;;5082020;28;20636;-72
2023/09/23 12:32:06;;;;;;;0.73;0.60;;;17.70;85.00;;;;;;5092481;27;20634;-71
2023/09/23 12:34:33;;;;;;;1.23;0.50;;;17.50;81.90;;;;;;5091418;27;20619;-71
2023/09/23 12:37:00;;;;;;;0.93;0.93;;;17.40;84.50;;;;;;5087363;28;20613;-69
2023/09/23 12:39:30;;;;;;;8.63;1.13;;;17.30;84.70;;;;;;5095933;27;20627;-69
2023/09/23 12:41:57;;;;;;;0.67;0.30;;;17.30;83.10;;;;;;5097696;27;20631;-68
2023/09/23 12:44:24;;;;;;;0.73;0.50;;;17.30;83.20;;;;;;5098179;27;20624;-70
2023/09/23 12:46:51;;;;;;;0.80;0.80;;;17.20;83.30;;;;;;5098744;27;20707;-72
2023/09/23 12:49:20;;;;;;;1.80;0.60;;;17.30;84.10;;;;;;5099735;27;20641;-72
2023/09/23 12:51:47;;;;;;;0.40;0.30;;;17.30;85.50;;;;;;5099860;27;20719;-72
2023/09/23 12:54:14;;;;;;;2.20;0.67;;;17.10;81.80;;;;;;5103699;27;20621;-72